Time;durP1;ratioP1;P1;durP2;ratioP2;P2;SDS_P1;SDS_P2;PMS_P1;PMS_P2;Temp;Humidity;BMP_temperature;BMP_pressure;BME280_temperature;BME280_humidity;BME280_pressure;Samples;Min_cycle;Max_cycle;Signal;HPM_P1;HPM_P2
2021/10/21 00:00:59;;;;;;;11.57;2.77;;;15.20;80.00;;;;;;5044809;28;20408;-83
2021/10/21 00:03:25;;;;;;;4.07;1.57;;;15.20;78.80;;;;;;5066659;28;20208;-84
2021/10/21 00:05:51;;;;;;;6.80;2.33;;;15.30;79.40;;;;;;5073972;28;20180;-85
2021/10/21 00:08:17;;;;;;;5.87;1.73;;;15.40;79.10;;;;;;5041284;28;20620;-84
2021/10/21 00:10:45;;;;;;;6.10;1.42;;;15.40;79.60;;;;;;5060593;28;20177;-84
2021/10/21 00:13:11;;;;;;;1.90;1.25;;;15.40;77.90;;;;;;5052031;28;20284;-84
2021/10/21 00:15:37;;;;;;;4.18;2.22;;;15.40;77.50;;;;;;5055422;28;20219;-83
2021/10/21 00:18:04;;;;;;;6.27;2.07;;;15.50;77.40;;;;;;5055674;28;20209;-84
2021/10/21 00:20:30;;;;;;;9.18;2.65;;;15.40;76.50;;;;;;5055651;28;20411;-84
2021/10/21 00:22:56;;;;;;;5.80;1.42;;;15.40;75.10;;;;;;5054972;28;20244;-84
2021/10/21 00:25:21;;;;;;;5.50;1.43;;;15.20;73.20;;;;;;5056378;28;20197;-84
2021/10/21 00:27:47;;;;;;;10.73;1.40;;;15.20;72.50;;;;;;5056368;28;20196;-83
2021/10/21 00:30:13;;;;;;;2.20;1.20;;;15.10;72.50;;;;;;5055328;28;21052;-83
2021/10/21 00:32:39;;;;;;;2.03;1.15;;;15.10;71.70;;;;;;5056196;28;20559;-84
2021/10/21 00:35:05;;;;;;;5.10;1.30;;;15.10;72.10;;;;;;5056072;28;20201;-84
2021/10/21 00:37:31;;;;;;;1.58;1.30;;;15.00;71.30;;;;;;5061315;28;20176;-84
2021/10/21 00:39:57;;;;;;;3.80;1.40;;;14.90;71.40;;;;;;5060854;28;20184;-84
2021/10/21 00:42:22;;;;;;;3.00;1.40;;;14.80;70.40;;;;;;5061265;28;20412;-83
2021/10/21 00:44:48;;;;;;;2.83;1.30;;;14.70;69.80;;;;;;5060673;28;20204;-84
2021/10/21 00:47:16;;;;;;;4.00;1.73;;;14.70;70.10;;;;;;5061958;28;20184;-83
2021/10/21 00:49:42;;;;;;;9.23;1.30;;;14.60;68.60;;;;;;5061544;28;20459;-83
2021/10/21 00:52:08;;;;;;;10.05;1.30;;;14.60;69.00;;;;;;5058912;28;20223;-84
2021/10/21 00:54:36;;;;;;;6.18;1.55;;;14.60;69.20;;;;;;5038559;28;20197;-83
2021/10/21 00:57:03;;;;;;;11.35;1.52;;;14.60;68.40;;;;;;5056539;28;20248;-84
2021/10/21 00:59:30;;;;;;;3.75;1.42;;;14.60;68.10;;;;;;5039622;28;20260;-84
2021/10/21 01:01:57;;;;;;;5.63;1.08;;;14.50;68.30;;;;;;5056533;28;20186;-84
2021/10/21 01:04:24;;;;;;;6.65;1.10;;;14.60;68.40;;;;;;5054760;28;20242;-84
2021/10/21 01:06:53;;;;;;;6.05;1.50;;;14.50;67.60;;;;;;5056252;28;20688;-84
2021/10/21 01:09:19;;;;;;;6.05;1.10;;;14.60;68.00;;;;;;5038343;28;20556;-84
2021/10/21 01:11:45;;;;;;;4.50;1.20;;;14.70;68.80;;;;;;5056273;28;20238;-84
2021/10/21 01:14:11;;;;;;;5.80;1.50;;;14.70;67.50;;;;;;5056093;28;20193;-84
2021/10/21 01:16:41;;;;;;;1.88;1.40;;;14.60;68.30;;;;;;5054392;28;20173;-84
2021/10/21 01:19:14;;;;;;;7.22;1.33;;;14.70;68.60;;;;;;5054502;28;20191;-84
2021/10/21 01:21:42;;;;;;;2.08;0.93;;;14.60;68.20;;;;;;5055134;28;20177;-84
2021/10/21 01:24:08;;;;;;;3.00;1.05;;;14.70;68.70;;;;;;5055716;28;20680;-84
2021/10/21 01:26:33;;;;;;;7.40;1.43;;;14.80;69.00;;;;;;5057139;28;20256;-83
2021/10/21 01:28:59;;;;;;;6.37;1.50;;;14.70;68.90;;;;;;5055643;28;20184;-84
2021/10/21 01:31:25;;;;;;;2.60;1.80;;;14.70;68.60;;;;;;5056695;28;20236;-84
2021/10/21 01:33:50;;;;;;;2.00;1.20;;;14.70;68.20;;;;;;5055784;28;20227;-85
2021/10/21 01:36:16;;;;;;;3.93;1.20;;;14.90;68.20;;;;;;5055115;28;20680;-85
2021/10/21 01:38:43;;;;;;;7.17;1.63;;;14.90;68.10;;;;;;5055715;28;20173;-84
2021/10/21 01:41:09;;;;;;;8.95;2.42;;;14.80;68.00;;;;;;5055875;28;20219;-84
2021/10/21 01:43:42;;;;;;;1.90;1.70;;;14.90;68.20;;;;;;5054352;28;20200;-84
2021/10/21 01:46:09;;;;;;;3.15;1.25;;;14.80;68.00;;;;;;5019822;28;20184;-84
2021/10/21 01:48:36;;;;;;;10.32;1.75;;;14.70;68.50;;;;;;5020551;28;20181;-83
2021/10/21 01:51:03;;;;;;;4.35;1.20;;;14.70;69.70;;;;;;5038220;28;20200;-83
2021/10/21 01:53:28;;;;;;;3.15;1.40;;;14.70;71.40;;;;;;5032989;28;20209;-84
2021/10/21 01:55:54;;;;;;;4.70;1.60;;;14.70;72.90;;;;;;5056945;28;20581;-85
2021/10/21 01:58:20;;;;;;;8.27;1.40;;;14.30;74.80;;;;;;5056881;28;20170;-84
2021/10/21 02:00:45;;;;;;;7.00;1.80;;;14.20;76.60;;;;;;5039596;28;20234;-84
2021/10/21 02:03:11;;;;;;;4.50;1.10;;;14.20;78.00;;;;;;5038650;28;20706;-85
2021/10/21 02:05:37;;;;;;;5.93;1.70;;;14.20;78.70;;;;;;5048655;28;20215;-84
2021/10/21 02:08:04;;;;;;;6.77;2.17;;;14.20;78.70;;;;;;5055894;28;20235;-85
2021/10/21 02:10:29;;;;;;;10.85;1.77;;;14.10;79.20;;;;;;5057102;28;20972;-84
2021/10/21 02:12:56;;;;;;;6.00;1.93;;;14.00;79.00;;;;;;5056895;28;20185;-85
2021/10/21 02:15:22;;;;;;;2.80;1.70;;;14.10;79.10;;;;;;5059095;28;20458;-84
2021/10/21 02:17:48;;;;;;;7.47;1.70;;;14.10;79.20;;;;;;5062196;28;20200;-84
2021/10/21 02:20:15;;;;;;;5.82;1.70;;;14.10;79.40;;;;;;5063086;28;20165;-84
2021/10/21 02:22:42;;;;;;;6.45;1.92;;;14.10;80.10;;;;;;5058381;28;20268;-84
2021/10/21 02:25:10;;;;;;;7.85;1.80;;;14.10;80.60;;;;;;5055333;28;20713;-84
2021/10/21 02:27:36;;;;;;;8.02;2.20;;;14.10;80.60;;;;;;5061376;28;20243;-85
2021/10/21 02:30:03;;;;;;;7.70;1.70;;;14.00;80.60;;;;;;5059987;28;20231;-84
2021/10/21 02:32:29;;;;;;;4.72;1.63;;;14.10;81.00;;;;;;5056272;28;20668;-84
2021/10/21 02:34:55;;;;;;;5.77;1.50;;;14.10;80.60;;;;;;5062037;28;20207;-84
2021/10/21 02:37:20;;;;;;;5.03;1.60;;;14.10;80.20;;;;;;5044143;28;20275;-85
2021/10/21 02:39:46;;;;;;;8.53;1.57;;;14.10;80.30;;;;;;5058073;28;20188;-84
2021/10/21 02:42:12;;;;;;;7.27;2.07;;;14.00;80.00;;;;;;5057380;28;20532;-84
2021/10/21 02:44:37;;;;;;;5.63;1.53;;;13.90;80.30;;;;;;5059063;28;20203;-84
2021/10/21 02:47:03;;;;;;;7.50;2.13;;;14.00;81.10;;;;;;5060984;28;20209;-84
2021/10/21 02:49:29;;;;;;;4.33;1.70;;;14.00;81.30;;;;;;5058656;28;20549;-84
2021/10/21 02:51:55;;;;;;;3.70;2.10;;;13.80;81.10;;;;;;5058065;28;20758;-84
2021/10/21 02:54:20;;;;;;;4.87;1.80;;;13.80;81.70;;;;;;5059361;28;20207;-84
2021/10/21 02:56:46;;;;;;;6.67;2.00;;;13.90;82.20;;;;;;5043058;28;20852;-84
2021/10/21 02:59:12;;;;;;;11.90;2.30;;;13.60;82.10;;;;;;5060308;28;20238;-84
2021/10/21 03:01:37;;;;;;;7.43;1.67;;;13.80;83.00;;;;;;5060011;28;20235;-83
2021/10/21 03:04:03;;;;;;;4.30;2.40;;;13.80;83.10;;;;;;5044650;28;20202;-83
2021/10/21 03:06:29;;;;;;;7.33;1.67;;;13.80;82.60;;;;;;5040926;28;20272;-83
2021/10/21 03:08:54;;;;;;;3.10;1.87;;;13.80;82.70;;;;;;5038983;28;20188;-83
2021/10/21 03:11:20;;;;;;;3.80;1.87;;;13.70;82.30;;;;;;5040225;28;20243;-84
2021/10/21 03:13:46;;;;;;;7.30;1.47;;;13.70;82.50;;;;;;5068729;28;20220;-84
2021/10/21 03:16:12;;;;;;;5.80;1.97;;;13.80;82.70;;;;;;5057441;28;20176;-84
2021/10/21 03:18:37;;;;;;;6.00;1.63;;;13.70;82.80;;;;;;5057100;28;20179;-84
2021/10/21 03:21:03;;;;;;;6.90;3.23;;;13.70;83.30;;;;;;5058530;28;20185;-84
2021/10/21 03:23:29;;;;;;;10.60;1.70;;;13.70;83.80;;;;;;5059379;28;20567;-85
2021/10/21 03:25:55;;;;;;;13.60;1.93;;;13.70;83.90;;;;;;5060574;28;20226;-85
2021/10/21 03:28:21;;;;;;;3.60;1.90;;;13.60;83.60;;;;;;5059643;28;20262;-84
2021/10/21 03:30:47;;;;;;;6.57;2.05;;;13.60;83.70;;;;;;5041939;28;20252;-85
2021/10/21 03:33:12;;;;;;;8.20;1.90;;;13.60;83.50;;;;;;5043042;28;20613;-84
2021/10/21 03:35:39;;;;;;;6.40;1.67;;;13.60;83.50;;;;;;5045132;28;20420;-83
2021/10/21 03:38:05;;;;;;;6.15;1.65;;;13.60;83.60;;;;;;5046152;28;20432;-83
2021/10/21 03:40:32;;;;;;;5.97;1.50;;;13.50;83.80;;;;;;5029248;28;20185;-83
2021/10/21 03:42:57;;;;;;;6.32;2.53;;;13.30;83.70;;;;;;5047651;28;20415;-84
2021/10/21 03:45:23;;;;;;;3.57;1.30;;;13.30;83.80;;;;;;5047572;28;20222;-84
2021/10/21 03:47:49;;;;;;;3.53;1.07;;;13.40;84.20;;;;;;5062904;28;20412;-84
2021/10/21 03:50:16;;;;;;;9.63;1.83;;;13.20;84.50;;;;;;5043077;28;20185;-84
2021/10/21 03:52:41;;;;;;;17.73;2.30;;;13.10;84.60;;;;;;5026853;28;20770;-84
2021/10/21 03:55:07;;;;;;;11.13;2.10;;;13.00;84.50;;;;;;5030775;28;20210;-84
2021/10/21 03:57:33;;;;;;;8.10;2.20;;;13.00;84.10;;;;;;5031343;28;20174;-83
2021/10/21 03:59:59;;;;;;;15.47;2.70;;;12.90;83.90;;;;;;5046445;28;20503;-84
2021/10/21 04:02:25;;;;;;;8.83;2.67;;;12.90;84.10;;;;;;5030351;28;20424;-83
2021/10/21 04:04:50;;;;;;;19.73;2.97;;;12.90;84.00;;;;;;5034663;28;20241;-84
2021/10/21 04:07:16;;;;;;;8.93;2.27;;;12.80;83.70;;;;;;5056045;28;20181;-84
2021/10/21 04:09:42;;;;;;;23.70;3.72;;;12.80;84.10;;;;;;5057699;28;20185;-84
2021/10/21 04:12:08;;;;;;;5.67;2.00;;;12.70;84.90;;;;;;5056118;28;20204;-84
2021/10/21 04:14:34;;;;;;;15.93;3.07;;;12.70;86.20;;;;;;5056116;28;20439;-84
2021/10/21 04:16:59;;;;;;;22.13;3.50;;;12.60;87.10;;;;;;5056716;28;20242;-84
2021/10/21 04:19:25;;;;;;;17.00;4.10;;;12.60;87.70;;;;;;5057338;28;20181;-83
2021/10/21 04:21:51;;;;;;;7.10;2.63;;;12.40;87.30;;;;;;5058587;28;20184;-84
2021/10/21 04:24:17;;;;;;;6.90;2.45;;;12.00;86.70;;;;;;5056091;28;20615;-85
2021/10/21 04:26:43;;;;;;;15.20;2.77;;;11.90;87.00;;;;;;5056533;28;20185;-85
2021/10/21 04:29:08;;;;;;;12.73;3.00;;;11.80;87.40;;;;;;5056490;28;20675;-84
2021/10/21 04:31:34;;;;;;;18.47;3.60;;;11.80;88.40;;;;;;5056176;28;20194;-84
2021/10/21 04:34:00;;;;;;;9.77;3.85;;;11.80;88.00;;;;;;5056859;28;20193;-85
2021/10/21 04:36:26;;;;;;;13.57;3.60;;;11.70;88.80;;;;;;5057355;28;20701;-85
2021/10/21 04:38:51;;;;;;;19.30;3.40;;;11.70;89.10;;;;;;5057524;28;20700;-85
2021/10/21 04:41:17;;;;;;;9.93;2.50;;;11.70;89.40;;;;;;5055764;28;20184;-85
2021/10/21 04:43:43;;;;;;;11.33;2.70;;;11.70;88.80;;;;;;5055626;28;20546;-83
2021/10/21 04:46:08;;;;;;;20.43;5.27;;;11.60;88.30;;;;;;5036965;28;20216;-85
2021/10/21 04:48:34;;;;;;;18.73;3.17;;;11.60;88.40;;;;;;5055009;28;20421;-85
2021/10/21 04:51:00;;;;;;;10.53;3.60;;;11.70;88.80;;;;;;5061417;28;20547;-85
2021/10/21 04:53:26;;;;;;;8.20;2.60;;;11.60;87.90;;;;;;5061969;28;20201;-85
2021/10/21 04:55:51;;;;;;;10.80;3.10;;;11.70;87.50;;;;;;5057720;28;20208;-85
2021/10/21 04:58:17;;;;;;;12.33;2.83;;;11.70;87.60;;;;;;5055362;28;20466;-85
2021/10/21 05:00:43;;;;;;;13.80;3.30;;;11.70;87.20;;;;;;5055465;28;20181;-85
2021/10/21 05:03:10;;;;;;;27.63;5.10;;;11.70;86.60;;;;;;5038493;28;20640;-85
2021/10/21 05:05:36;;;;;;;21.45;3.28;;;11.70;86.30;;;;;;5055205;28;20288;-85
2021/10/21 05:08:03;;;;;;;10.57;2.97;;;11.70;86.00;;;;;;5054747;28;20181;-86
2021/10/21 05:10:30;;;;;;;15.30;3.15;;;11.60;85.80;;;;;;5054887;28;20173;-86
2021/10/21 05:12:56;;;;;;;13.18;3.03;;;11.70;86.10;;;;;;5054706;28;20236;-86
2021/10/21 05:15:23;;;;;;;15.50;3.47;;;11.60;86.40;;;;;;5037324;28;20664;-85
2021/10/21 05:17:49;;;;;;;17.35;2.92;;;11.60;86.50;;;;;;5056802;28;20187;-85
2021/10/21 05:20:15;;;;;;;13.25;3.33;;;11.50;86.50;;;;;;5057170;28;20260;-85
2021/10/21 05:22:41;;;;;;;7.47;1.80;;;11.50;86.50;;;;;;5056821;28;20212;-85
2021/10/21 05:25:08;;;;;;;15.40;2.80;;;11.50;86.20;;;;;;5056090;28;20201;-85
2021/10/21 05:27:36;;;;;;;10.07;2.30;;;11.50;85.70;;;;;;5040510;28;20185;-85
2021/10/21 05:30:06;;;;;;;9.63;3.03;;;11.50;85.10;;;;;;5057850;28;20181;-85
2021/10/21 05:32:32;;;;;;;9.73;2.60;;;11.40;83.70;;;;;;5064516;28;20220;-85
2021/10/21 05:34:58;;;;;;;19.87;2.60;;;11.50;82.80;;;;;;5057053;28;20739;-85
2021/10/21 05:37:24;;;;;;;5.45;2.40;;;11.40;81.80;;;;;;5056099;28;20177;-85
2021/10/21 05:39:50;;;;;;;5.03;1.60;;;11.40;81.40;;;;;;5054634;28;20199;-84
2021/10/21 05:42:15;;;;;;;2.80;1.10;;;11.20;79.30;;;;;;5049720;28;20516;-84
2021/10/21 05:44:41;;;;;;;2.13;1.40;;;11.20;77.70;;;;;;5063747;28;20427;-84
2021/10/21 05:47:07;;;;;;;4.03;1.40;;;11.20;76.80;;;;;;5050358;28;20424;-83
2021/10/21 05:49:33;;;;;;;10.43;1.70;;;11.20;76.70;;;;;;5035349;28;20413;-84
2021/10/21 05:51:59;;;;;;;7.00;1.60;;;11.30;77.10;;;;;;5070430;28;20192;-84
2021/10/21 05:54:25;;;;;;;4.65;1.50;;;11.50;78.40;;;;;;5054434;28;20522;-84
2021/10/21 05:56:51;;;;;;;3.40;1.75;;;11.50;78.80;;;;;;5053913;28;20185;-84
2021/10/21 05:59:17;;;;;;;5.30;2.13;;;11.60;79.70;;;;;;5054209;28;20180;-84
2021/10/21 06:01:43;;;;;;;9.47;2.37;;;11.60;79.00;;;;;;5053971;28;20558;-84
2021/10/21 06:04:08;;;;;;;4.77;2.10;;;11.60;79.40;;;;;;5053795;28;20201;-84
2021/10/21 06:06:37;;;;;;;14.77;3.60;;;11.70;80.10;;;;;;5055042;28;20894;-84
2021/10/21 06:09:06;;;;;;;10.35;3.65;;;11.80;80.50;;;;;;5055384;28;20184;-85
2021/10/21 06:11:35;;;;;;;13.27;3.03;;;11.90;81.00;;;;;;5055095;28;20204;-85
2021/10/21 06:14:02;;;;;;;7.70;2.50;;;11.90;81.00;;;;;;5054715;28;20197;-83
2021/10/21 06:16:28;;;;;;;13.05;3.28;;;11.80;80.20;;;;;;5042939;28;20177;-83
2021/10/21 06:18:54;;;;;;;10.00;2.88;;;11.80;79.30;;;;;;5022789;28;20173;-83
2021/10/21 06:21:23;;;;;;;12.05;2.33;;;11.90;78.50;;;;;;5039804;28;20284;-82
2021/10/21 06:23:49;;;;;;;16.52;2.00;;;11.90;78.00;;;;;;5037187;28;20201;-83
2021/10/21 06:26:17;;;;;;;7.47;2.33;;;12.00;77.60;;;;;;5055675;28;20186;-83
2021/10/21 06:28:43;;;;;;;11.18;2.67;;;12.00;77.10;;;;;;5040471;28;20795;-85
2021/10/21 06:31:12;;;;;;;9.00;2.45;;;12.00;76.50;;;;;;5045003;28;20735;-85
2021/10/21 06:33:39;;;;;;;13.73;3.35;;;12.10;77.10;;;;;;5042691;28;20223;-85
2021/10/21 06:36:04;;;;;;;5.50;2.50;;;12.20;76.90;;;;;;5043252;28;20192;-85
2021/10/21 06:38:30;;;;;;;7.93;2.77;;;12.10;76.70;;;;;;5042410;28;20177;-85
2021/10/21 06:40:56;;;;;;;4.80;2.13;;;12.20;76.80;;;;;;5043020;28;20231;-83
2021/10/21 06:43:22;;;;;;;8.57;2.27;;;12.20;76.60;;;;;;5042213;28;20439;-83
2021/10/21 06:45:48;;;;;;;8.40;2.73;;;12.20;76.50;;;;;;5037564;28;20427;-84
2021/10/21 06:48:13;;;;;;;6.93;2.50;;;12.10;76.60;;;;;;5036492;28;20448;-84
2021/10/21 06:50:39;;;;;;;8.37;2.90;;;12.10;76.60;;;;;;5035996;28;20622;-84
2021/10/21 06:53:05;;;;;;;8.37;2.17;;;12.10;76.50;;;;;;5037905;28;20174;-83
2021/10/21 06:55:30;;;;;;;5.57;2.67;;;12.20;75.90;;;;;;5038373;28;20189;-84
2021/10/21 06:57:58;;;;;;;10.97;3.20;;;12.30;76.10;;;;;;5038207;28;20178;-84
2021/10/21 07:00:24;;;;;;;9.55;2.20;;;12.20;76.00;;;;;;5039605;28;20170;-85
2021/10/21 07:02:51;;;;;;;18.23;2.67;;;12.30;76.20;;;;;;5037745;28;20637;-84
2021/10/21 07:05:21;;;;;;;9.32;2.47;;;12.30;76.40;;;;;;5042972;28;20201;-84
2021/10/21 07:07:47;;;;;;;10.63;3.90;;;12.30;76.40;;;;;;5037605;28;20186;-84
2021/10/21 07:10:15;;;;;;;21.23;2.90;;;12.30;76.70;;;;;;5038300;28;20544;-84
2021/10/21 07:12:42;;;;;;;12.65;3.33;;;12.40;76.20;;;;;;5054101;28;20974;-84
2021/10/21 07:15:09;;;;;;;6.80;2.47;;;12.40;75.70;;;;;;5020954;28;20202;-84
2021/10/21 07:17:36;;;;;;;20.90;3.42;;;12.40;75.80;;;;;;5038447;28;20583;-84
2021/10/21 07:20:05;;;;;;;11.55;3.85;;;12.40;75.70;;;;;;5043752;28;20166;-84
2021/10/21 07:22:31;;;;;;;9.50;3.00;;;12.40;75.70;;;;;;5049242;28;20169;-84
2021/10/21 07:24:57;;;;;;;15.57;3.60;;;12.50;75.80;;;;;;5056806;28;20205;-84
2021/10/21 07:27:24;;;;;;;15.90;4.55;;;12.50;75.60;;;;;;5075124;28;20188;-84
2021/10/21 07:29:50;;;;;;;10.55;3.17;;;12.50;75.80;;;;;;5057344;28;20181;-84
2021/10/21 07:32:15;;;;;;;8.85;2.60;;;12.60;76.20;;;;;;5064576;28;20248;-84
2021/10/21 07:34:42;;;;;;;6.27;2.50;;;12.50;76.10;;;;;;5074509;28;20201;-84
2021/10/21 07:37:12;;;;;;;10.05;1.92;;;12.50;75.40;;;;;;5074634;28;20162;-84
2021/10/21 07:39:38;;;;;;;14.45;3.45;;;12.60;75.10;;;;;;5074361;28;20180;-84
2021/10/21 07:42:05;;;;;;;16.83;3.28;;;12.60;75.50;;;;;;5074482;28;20179;-84
2021/10/21 07:44:35;;;;;;;14.02;2.20;;;12.80;75.40;;;;;;5072076;28;20205;-84
2021/10/21 07:47:02;;;;;;;6.78;2.03;;;12.90;75.00;;;;;;5049469;28;20215;-84
2021/10/21 07:49:28;;;;;;;7.40;2.05;;;13.00;74.70;;;;;;5070939;28;20173;-84
2021/10/21 07:51:55;;;;;;;7.40;1.92;;;13.00;74.60;;;;;;5072103;28;20212;-84
2021/10/21 07:54:27;;;;;;;11.80;2.70;;;13.20;74.60;;;;;;5066459;28;20201;-84
2021/10/21 07:56:53;;;;;;;5.43;2.20;;;13.30;74.50;;;;;;5057446;28;20187;-84
2021/10/21 07:59:21;;;;;;;12.00;3.20;;;13.40;73.70;;;;;;5056418;28;20181;-84
2021/10/21 08:01:47;;;;;;;12.02;3.20;;;13.30;73.50;;;;;;5058547;28;20188;-84
2021/10/21 08:04:14;;;;;;;12.27;3.37;;;13.40;73.00;;;;;;5056801;28;20209;-85
2021/10/21 08:06:43;;;;;;;4.50;2.40;;;13.40;73.20;;;;;;5040558;28;20207;-84
2021/10/21 08:09:08;;;;;;;5.82;1.77;;;13.30;73.50;;;;;;5024366;28;20185;-84
2021/10/21 08:11:34;;;;;;;12.07;2.10;;;13.20;73.40;;;;;;5040257;28;20193;-84
2021/10/21 08:14:00;;;;;;;7.20;2.20;;;13.20;73.60;;;;;;5058713;28;20440;-84
2021/10/21 08:16:26;;;;;;;10.23;1.83;;;13.30;73.70;;;;;;5058590;28;20640;-84
2021/10/21 08:18:55;;;;;;;8.60;2.38;;;13.40;73.30;;;;;;5057029;28;20648;-84
2021/10/21 08:21:21;;;;;;;3.58;1.77;;;13.60;73.40;;;;;;5057958;28;20212;-84
2021/10/21 08:23:50;;;;;;;7.87;2.70;;;13.70;72.70;;;;;;5042621;28;20267;-84
2021/10/21 08:26:16;;;;;;;7.97;2.63;;;13.90;72.00;;;;;;5023807;28;20209;-85
2021/10/21 08:28:46;;;;;;;9.33;2.70;;;13.90;71.40;;;;;;5040374;28;20601;-84
2021/10/21 08:31:11;;;;;;;9.40;1.95;;;13.90;70.70;;;;;;5039616;28;20216;-84
2021/10/21 08:33:37;;;;;;;3.93;1.70;;;13.90;70.70;;;;;;5039828;28;20201;-84
2021/10/21 08:36:10;;;;;;;4.63;1.97;;;13.80;70.70;;;;;;5040264;28;20267;-84
2021/10/21 08:38:36;;;;;;;10.88;2.58;;;13.80;70.10;;;;;;5040968;28;20222;-84
2021/10/21 08:41:02;;;;;;;5.17;1.93;;;13.70;70.00;;;;;;5058409;28;20181;-84
2021/10/21 08:43:28;;;;;;;6.57;2.07;;;13.70;70.40;;;;;;5057605;28;20455;-84
2021/10/21 08:45:54;;;;;;;5.00;1.67;;;13.60;71.50;;;;;;5057911;28;20252;-84
2021/10/21 08:48:20;;;;;;;8.63;1.50;;;13.60;71.80;;;;;;5057556;28;20195;-84
2021/10/21 08:50:47;;;;;;;7.55;2.53;;;13.50;72.10;;;;;;5039672;28;20731;-84
2021/10/21 08:53:14;;;;;;;6.07;1.90;;;13.40;72.60;;;;;;5039471;28;20197;-84
2021/10/21 08:55:39;;;;;;;8.02;2.55;;;13.30;73.70;;;;;;5040491;28;20177;-84
2021/10/21 08:58:05;;;;;;;4.83;1.60;;;13.20;73.30;;;;;;5040610;28;20721;-84
2021/10/21 09:00:34;;;;;;;5.63;1.80;;;13.10;74.10;;;;;;5056821;28;20174;-84
2021/10/21 09:03:03;;;;;;;3.05;1.50;;;13.10;73.80;;;;;;5039641;28;20768;-84
2021/10/21 09:08:27;;;;;;;11.13;2.38;;;12.90;74.60;;;;;;5034785;28;20188;-84
2021/10/21 09:10:56;;;;;;;7.97;1.90;;;12.80;75.10;;;;;;5056388;28;20644;-84
2021/10/21 09:13:23;;;;;;;12.27;2.20;;;12.70;75.80;;;;;;5055926;28;20431;-84
2021/10/21 09:15:56;;;;;;;4.63;1.77;;;12.60;76.10;;;;;;5056859;28;20640;-84
2021/10/21 09:18:38;;;;;;;3.75;1.90;;;12.60;76.70;;;;;;5056387;28;20188;-84
2021/10/21 09:21:04;;;;;;;8.07;1.85;;;12.60;77.40;;;;;;5054786;28;20176;-84
2021/10/21 09:23:30;;;;;;;4.60;1.50;;;12.60;77.40;;;;;;5054826;28;20217;-84
2021/10/21 09:26:08;;;;;;;12.87;1.83;;;12.60;77.90;;;;;;5054562;28;20177;-84
2021/10/21 09:28:35;;;;;;;8.25;2.20;;;12.70;79.20;;;;;;5054674;28;20177;-84
2021/10/21 09:31:09;;;;;;;4.85;1.48;;;12.60;78.10;;;;;;5054882;28;20182;-84
2021/10/21 09:33:56;;;;;;;6.13;1.35;;;12.60;78.30;;;;;;5054089;28;20687;-84
2021/10/21 09:36:22;;;;;;;4.35;1.85;;;12.60;78.40;;;;;;5071101;28;20181;-84
2021/10/21 09:38:58;;;;;;;6.35;1.95;;;12.80;78.20;;;;;;5054114;28;20551;-84
2021/10/21 09:41:30;;;;;;;10.88;2.33;;;12.90;78.60;;;;;;5054912;28;20181;-84
2021/10/21 09:43:56;;;;;;;8.88;2.13;;;12.90;78.20;;;;;;5056761;28;20199;-84
2021/10/21 09:46:53;;;;;;;7.00;2.47;;;13.00;78.20;;;;;;5055321;28;20243;-84
2021/10/21 09:49:32;;;;;;;5.72;1.92;;;13.20;78.30;;;;;;5060788;28;20216;-84
2021/10/21 09:52:01;;;;;;;4.78;2.28;;;13.30;78.60;;;;;;5057065;28;20200;-84
2021/10/21 09:54:27;;;;;;;7.43;2.40;;;13.10;77.50;;;;;;5055996;28;20242;-84
2021/10/21 09:56:55;;;;;;;5.15;1.90;;;13.10;77.50;;;;;;5055608;28;20187;-84
2021/10/21 09:59:29;;;;;;;10.20;2.83;;;13.00;77.40;;;;;;5071797;28;20173;-84
2021/10/21 10:01:57;;;;;;;4.68;2.28;;;13.00;77.90;;;;;;5054238;28;20182;-84
2021/10/21 10:04:25;;;;;;;8.38;2.00;;;13.10;78.70;;;;;;5055232;28;20246;-84
2021/10/21 10:06:58;;;;;;;4.60;2.17;;;13.20;78.60;;;;;;5059329;28;20161;-84
2021/10/21 10:09:33;;;;;;;3.78;1.60;;;13.20;78.20;;;;;;5039155;28;20165;-84
2021/10/21 10:12:04;;;;;;;2.97;1.55;;;13.30;78.10;;;;;;5039403;28;20241;-84
2021/10/21 10:14:30;;;;;;;5.30;2.28;;;13.40;77.80;;;;;;5056586;28;20189;-84
2021/10/21 10:17:01;;;;;;;4.95;1.60;;;13.50;77.10;;;;;;5057809;28;20185;-84
2021/10/21 10:19:28;;;;;;;7.47;2.33;;;13.60;76.60;;;;;;5069838;28;20173;-84
2021/10/21 10:21:56;;;;;;;4.13;1.45;;;13.60;76.00;;;;;;5070122;28;20180;-84
2021/10/21 10:24:32;;;;;;;5.00;1.58;;;13.60;74.90;;;;;;5029770;28;20205;-84
2021/10/21 10:27:03;;;;;;;4.85;1.60;;;13.50;74.70;;;;;;5054772;28;20185;-84
2021/10/21 10:29:32;;;;;;;5.13;1.95;;;13.60;74.80;;;;;;5055487;28;20181;-85
2021/10/21 10:32:03;;;;;;;6.82;2.05;;;13.90;74.70;;;;;;5041320;28;20704;-84
2021/10/21 10:34:32;;;;;;;5.25;1.90;;;14.10;73.50;;;;;;5019035;28;20200;-83
2021/10/21 10:37:13;;;;;;;8.23;1.85;;;14.30;73.80;;;;;;5036805;28;20162;-84
2021/10/21 10:39:47;;;;;;;6.90;1.65;;;14.30;74.00;;;;;;5035989;28;20185;-84
2021/10/21 10:42:14;;;;;;;6.03;2.00;;;13.90;75.50;;;;;;5020052;28;20277;-83
2021/10/21 10:44:49;;;;;;;3.25;1.30;;;13.40;76.10;;;;;;5019376;28;20233;-83
2021/10/21 10:47:16;;;;;;;3.35;1.98;;;12.80;77.20;;;;;;5037727;28;20173;-83
2021/10/21 10:49:43;;;;;;;4.53;1.58;;;12.40;78.00;;;;;;5025130;28;20613;-83
2021/10/21 10:52:13;;;;;;;3.63;1.50;;;12.20;79.20;;;;;;5021952;28;20229;-83
2021/10/21 10:54:39;;;;;;;2.67;1.25;;;12.20;79.00;;;;;;5019351;28;20281;-83
2021/10/21 10:57:06;;;;;;;2.80;1.47;;;12.00;78.00;;;;;;5036141;28;20247;-83
2021/10/21 10:59:33;;;;;;;5.05;1.67;;;12.00;77.90;;;;;;5019887;28;20272;-83
2021/10/21 11:02:25;;;;;;;4.47;1.85;;;12.10;78.30;;;;;;5037599;28;20231;-83
2021/10/21 11:04:54;;;;;;;6.20;1.50;;;12.00;78.10;;;;;;5027854;28;20237;-83
2021/10/21 11:07:22;;;;;;;2.58;1.30;;;12.20;78.20;;;;;;5037273;28;20206;-83
2021/10/21 11:09:48;;;;;;;7.60;2.00;;;12.30;78.60;;;;;;5036537;28;20174;-83
2021/10/21 11:12:22;;;;;;;14.80;1.60;;;12.30;77.80;;;;;;5024676;28;20202;-84
2021/10/21 11:14:54;;;;;;;5.88;2.65;;;12.30;77.90;;;;;;5060343;28;20193;-84
2021/10/21 11:17:44;;;;;;;5.05;1.75;;;12.40;77.60;;;;;;5042635;28;20172;-84
2021/10/21 11:20:32;;;;;;;4.00;1.60;;;12.40;77.20;;;;;;5026842;28;20288;-83
2021/10/21 11:23:17;;;;;;;14.32;1.73;;;12.50;77.10;;;;;;5050072;28;20174;-84
2021/10/21 11:25:45;;;;;;;4.22;1.85;;;12.60;77.10;;;;;;5026162;28;20536;-84
2021/10/21 11:28:10;;;;;;;3.72;1.50;;;12.70;76.70;;;;;;5025021;28;20193;-84
2021/10/21 11:30:37;;;;;;;11.37;1.87;;;12.80;76.70;;;;;;5026010;28;20178;-84
2021/10/21 11:33:05;;;;;;;7.40;2.63;;;12.90;76.10;;;;;;5026640;28;20201;-84
2021/10/21 11:35:34;;;;;;;9.65;2.00;;;12.90;75.70;;;;;;5045872;28;20173;-83
2021/10/21 11:38:05;;;;;;;13.05;2.40;;;13.00;74.90;;;;;;5047121;28;20177;-83
2021/10/21 11:40:45;;;;;;;9.38;1.80;;;13.00;74.40;;;;;;5047789;28;20178;-84
2021/10/21 11:43:24;;;;;;;3.45;1.88;;;13.10;73.70;;;;;;5042168;28;20189;-84
2021/10/21 11:45:56;;;;;;;9.82;1.90;;;13.00;73.00;;;;;;5024943;28;20741;-84
2021/10/21 11:48:33;;;;;;;7.03;2.15;;;13.00;73.00;;;;;;5040853;28;20648;-84
2021/10/21 11:51:01;;;;;;;4.75;1.90;;;13.10;72.40;;;;;;5041193;28;20191;-84
2021/10/21 11:53:28;;;;;;;6.63;1.73;;;13.10;71.30;;;;;;5024199;28;20212;-84
2021/10/21 11:55:55;;;;;;;8.88;2.90;;;13.10;69.70;;;;;;5023506;28;20308;-83
2021/10/21 11:58:25;;;;;;;7.25;1.80;;;13.10;69.70;;;;;;5039574;28;20174;-83
2021/10/21 12:01:00;;;;;;;5.85;1.85;;;13.20;68.70;;;;;;5039163;28;20174;-83
2021/10/21 12:03:41;;;;;;;5.60;1.75;;;13.30;68.00;;;;;;5021861;28;20236;-83
2021/10/21 12:06:10;;;;;;;9.48;1.58;;;13.30;66.70;;;;;;5019244;28;20205;-83
2021/10/21 12:08:37;;;;;;;4.78;2.13;;;13.40;66.50;;;;;;5038796;28;20170;-83
2021/10/21 12:11:04;;;;;;;6.75;1.58;;;13.20;67.50;;;;;;5038722;28;20177;-83
2021/10/21 12:13:35;;;;;;;4.97;1.23;;;13.10;69.00;;;;;;5053401;28;20197;-84
2021/10/21 12:16:13;;;;;;;5.82;1.80;;;12.80;70.20;;;;;;5058244;28;20181;-84
2021/10/21 12:18:38;;;;;;;3.90;1.33;;;12.60;71.40;;;;;;5058591;28;20173;-84
2021/10/21 12:21:07;;;;;;;4.00;1.23;;;12.70;72.00;;;;;;5058282;28;20184;-84
2021/10/21 12:23:54;;;;;;;10.75;1.50;;;12.80;71.30;;;;;;5040972;28;20202;-84
2021/10/21 12:26:29;;;;;;;2.75;1.10;;;12.80;70.70;;;;;;5057975;28;20184;-84
2021/10/21 12:29:02;;;;;;;1.23;1.00;;;12.90;69.70;;;;;;5058050;28;20177;-84
2021/10/21 12:31:32;;;;;;;2.85;1.08;;;12.80;69.70;;;;;;5057421;28;20213;-83
2021/10/21 12:34:04;;;;;;;0.90;0.80;;;12.70;68.80;;;;;;5055636;28;20208;-85
2021/10/21 12:36:41;;;;;;;8.00;1.42;;;12.70;68.30;;;;;;5073060;28;20181;-85
2021/10/21 12:39:13;;;;;;;1.38;0.85;;;12.50;68.70;;;;;;5056833;28;20690;-84
2021/10/21 12:41:52;;;;;;;3.65;0.90;;;12.50;68.60;;;;;;5055613;28;20181;-84
2021/10/21 12:44:21;;;;;;;1.27;1.17;;;12.30;68.80;;;;;;5055157;28;20203;-83
2021/10/21 12:46:47;;;;;;;1.10;0.95;;;12.30;71.40;;;;;;5055568;28;20640;-84
2021/10/21 12:49:15;;;;;;;1.60;0.82;;;12.30;70.50;;;;;;5038909;28;20189;-84